createdAt,value
2022-09-30T00:00:35.488Z,4.43
2022-09-30T00:03:02.237Z,4.80
2022-09-30T00:05:28.944Z,4.43
2022-09-30T00:07:55.590Z,3.70
2022-09-30T00:10:22.237Z,4.60
2022-09-30T00:12:48.964Z,4.40
2022-09-30T00:15:15.628Z,5.17
2022-09-30T00:17:42.550Z,5.03
2022-09-30T00:20:09.666Z,5.43
2022-09-30T00:22:36.725Z,4.40
2022-09-30T00:25:04.241Z,4.33
2022-09-30T00:27:30.864Z,4.70
2022-09-30T00:29:57.471Z,5.43
2022-09-30T00:32:24.063Z,4.77
2022-09-30T00:34:50.665Z,5.83
2022-09-30T00:37:17.258Z,4.23
2022-09-30T00:39:43.935Z,4.77
2022-09-30T00:42:14.838Z,4.40
2022-09-30T00:44:50.865Z,4.70
2022-09-30T00:47:50.384Z,4.40
2022-09-30T00:50:37.573Z,4.53
2022-09-30T00:53:35.066Z,4.73
2022-09-30T00:56:09.196Z,4.53
2022-09-30T00:58:53.066Z,4.38
2022-09-30T01:01:20.384Z,4.50
2022-09-30T01:04:00.366Z,4.17
2022-09-30T01:06:27.022Z,4.43
2022-09-30T01:08:54.126Z,4.83
2022-09-30T01:11:20.860Z,4.77
2022-09-30T01:13:49.543Z,4.27
2022-09-30T01:16:50.465Z,3.87
2022-09-30T01:19:29.329Z,4.30
2022-09-30T01:22:08.080Z,4.60
2022-09-30T01:24:46.278Z,3.87
2022-09-30T01:27:17.944Z,4.33
2022-09-30T01:30:06.291Z,4.13
2022-09-30T01:33:01.360Z,4.77
2022-09-30T01:35:54.051Z,4.07
2022-09-30T01:38:29.378Z,5.03
2022-09-30T01:41:06.787Z,4.47
2022-09-30T01:43:44.896Z,4.93
2022-09-30T01:46:33.268Z,4.67
2022-09-30T01:49:10.394Z,4.50
2022-09-30T01:51:53.493Z,4.30
2022-09-30T01:54:39.188Z,5.07
2022-09-30T01:57:11.483Z,4.33
2022-09-30T01:59:44.832Z,4.50
2022-09-30T02:02:29.396Z,4.10
2022-09-30T02:05:00.817Z,4.95
2022-09-30T02:07:33.279Z,4.67
2022-09-30T02:10:03.834Z,4.90
2022-09-30T02:12:35.265Z,4.40
2022-09-30T02:15:11.120Z,4.43
2022-09-30T02:17:43.234Z,4.30
2022-09-30T02:20:17.450Z,5.20
2022-09-30T02:22:47.003Z,4.55
2022-09-30T02:25:26.077Z,4.40
2022-09-30T02:27:59.147Z,5.07
2022-09-30T02:30:26.114Z,4.07
2022-09-30T02:32:56.779Z,4.73
2022-09-30T02:35:29.407Z,4.30
2022-09-30T02:38:03.543Z,4.23
2022-09-30T02:40:48.217Z,4.70
2022-09-30T02:46:15.213Z,3.80
2022-09-30T02:49:03.757Z,3.87
2022-09-30T02:51:49.970Z,4.57
2022-09-30T02:54:27.347Z,4.20
2022-09-30T02:56:58.948Z,3.83
2022-09-30T02:59:26.694Z,4.37
2022-09-30T03:01:53.481Z,4.20
2022-09-30T03:04:23.366Z,3.50
2022-09-30T03:06:50.406Z,4.60
2022-09-30T03:09:17.129Z,4.13
2022-09-30T03:11:43.975Z,5.17
2022-09-30T03:14:32.173Z,4.00
2022-09-30T03:17:21.590Z,4.10
2022-09-30T03:19:59.001Z,4.07
2022-09-30T03:22:52.947Z,4.73
2022-09-30T03:25:40.598Z,4.37
2022-09-30T03:28:25.365Z,4.43
2022-09-30T03:31:00.473Z,4.20
2022-09-30T03:33:53.074Z,4.57
2022-09-30T03:36:41.473Z,4.37
2022-09-30T03:39:19.207Z,4.47
2022-09-30T03:41:53.128Z,4.10
2022-09-30T03:44:25.218Z,4.25
2022-09-30T03:47:04.159Z,4.70
2022-09-30T03:49:34.567Z,4.23
2022-09-30T03:52:05.510Z,4.70
2022-09-30T03:54:33.363Z,4.37
2022-09-30T03:57:03.399Z,4.30
2022-09-30T03:59:30.026Z,4.10
2022-09-30T04:01:57.566Z,4.60
2022-09-30T04:04:24.244Z,4.87
2022-09-30T04:06:51.051Z,4.43
2022-09-30T04:09:17.771Z,4.93
2022-09-30T04:11:44.403Z,4.53
2022-09-30T04:14:11.028Z,4.63
2022-09-30T04:16:37.708Z,4.97
2022-09-30T04:19:05.569Z,4.23
2022-09-30T04:21:32.208Z,5.77
2022-09-30T04:23:58.914Z,4.53
2022-09-30T04:26:25.686Z,4.70
2022-09-30T04:28:52.791Z,4.43
2022-09-30T04:31:21.405Z,3.97
2022-09-30T04:33:48.245Z,4.17
2022-09-30T04:36:14.866Z,4.57
2022-09-30T04:38:41.491Z,4.13
2022-09-30T04:41:09.834Z,4.23
2022-09-30T04:43:36.697Z,4.67
2022-09-30T04:46:03.320Z,5.00
2022-09-30T04:48:31.378Z,4.97
2022-09-30T04:51:00.007Z,4.57
2022-09-30T04:53:26.696Z,4.93
2022-09-30T04:55:59.720Z,4.07
2022-09-30T04:58:26.609Z,3.70
2022-09-30T05:01:00.323Z,3.93
2022-09-30T05:03:27.107Z,4.00
2022-09-30T05:05:53.678Z,4.53
2022-09-30T05:08:20.965Z,4.50
2022-09-30T05:10:57.259Z,4.07
2022-09-30T05:13:25.359Z,4.10
2022-09-30T05:15:52.260Z,3.90
2022-09-30T05:18:20.106Z,4.30
2022-09-30T05:20:49.734Z,4.57
2022-09-30T05:23:16.872Z,5.13
2022-09-30T05:25:43.466Z,4.60
2022-09-30T05:28:10.198Z,4.50
2022-09-30T05:30:36.797Z,4.67
2022-09-30T05:33:03.462Z,4.30
2022-09-30T05:35:30.133Z,4.27
2022-09-30T05:37:56.805Z,4.20
2022-09-30T05:40:23.433Z,4.60
2022-09-30T05:42:50.321Z,4.50
2022-09-30T05:45:16.952Z,4.33
2022-09-30T05:47:43.613Z,4.27
2022-09-30T05:50:10.235Z,4.23
2022-09-30T05:52:36.870Z,5.63
2022-09-30T05:55:03.656Z,4.17
2022-09-30T05:57:30.587Z,4.00
2022-09-30T05:59:58.032Z,4.50
2022-09-30T06:02:24.920Z,4.23
2022-09-30T06:04:51.587Z,4.20
2022-09-30T06:07:18.203Z,4.73
2022-09-30T06:09:46.138Z,4.40
2022-09-30T06:12:12.911Z,5.03
2022-09-30T06:14:39.495Z,4.60
2022-09-30T06:17:06.542Z,4.00
2022-09-30T06:19:33.189Z,4.30
2022-09-30T06:22:00.419Z,4.20
2022-09-30T06:24:27.055Z,4.43
2022-09-30T06:26:54.327Z,4.80
2022-09-30T06:29:20.995Z,4.00
2022-09-30T06:31:48.522Z,4.47
2022-09-30T06:34:15.173Z,3.67
2022-09-30T06:36:41.757Z,4.23
2022-09-30T06:39:12.907Z,3.80
2022-09-30T06:41:43.555Z,4.40
2022-09-30T06:44:10.868Z,4.63
2022-09-30T06:46:50.769Z,5.13
2022-09-30T06:49:20.069Z,4.37
2022-09-30T06:51:46.718Z,4.03
2022-09-30T06:54:13.539Z,3.60
2022-09-30T06:56:40.164Z,4.27
2022-09-30T06:59:07.123Z,3.90
2022-09-30T07:01:33.792Z,4.00
2022-09-30T07:04:00.858Z,4.20
2022-09-30T07:06:27.485Z,4.73
2022-09-30T07:08:54.615Z,4.30
2022-09-30T07:11:21.349Z,4.40
2022-09-30T07:13:49.166Z,5.77
2022-09-30T07:16:19.389Z,4.20
2022-09-30T07:18:46.308Z,5.57
2022-09-30T07:21:15.973Z,4.90
2022-09-30T07:23:47.267Z,4.83
2022-09-30T07:26:19.591Z,4.37
2022-09-30T07:28:46.791Z,4.37
2022-09-30T07:31:32.318Z,4.00
2022-09-30T07:33:59.534Z,3.50
2022-09-30T07:36:34.017Z,3.97
2022-09-30T07:39:05.823Z,4.07
2022-09-30T07:41:34.033Z,5.10
2022-09-30T07:44:00.793Z,5.07
2022-09-30T07:46:30.262Z,5.57
2022-09-30T07:49:00.758Z,5.40
2022-09-30T07:51:31.298Z,6.00
2022-09-30T07:54:00.194Z,6.80
2022-09-30T07:56:27.573Z,7.40
2022-09-30T07:59:00.178Z,7.27
2022-09-30T08:01:31.508Z,7.50
2022-09-30T08:04:00.877Z,6.70
2022-09-30T08:06:28.791Z,5.97
2022-09-30T08:08:56.771Z,6.27
2022-09-30T08:11:24.181Z,5.40
2022-09-30T08:13:52.547Z,6.00
2022-09-30T08:16:20.240Z,5.17
2022-09-30T08:18:47.378Z,5.47
2022-09-30T08:21:14.290Z,5.20
2022-09-30T08:23:41.107Z,5.97
2022-09-30T08:26:10.020Z,5.50
2022-09-30T08:28:38.363Z,4.93
2022-09-30T08:31:10.368Z,5.27
2022-09-30T08:33:37.610Z,5.70
2022-09-30T08:36:06.667Z,5.50
2022-09-30T08:38:33.561Z,4.63
2022-09-30T08:41:24.390Z,5.10
2022-09-30T08:44:25.198Z,4.95
2022-09-30T08:47:23.195Z,5.20
2022-09-30T08:50:00.274Z,4.57
2022-09-30T08:52:44.729Z,4.40
2022-09-30T08:55:21.988Z,4.15
2022-09-30T08:57:48.860Z,4.23
2022-09-30T09:00:17.316Z,3.63
2022-09-30T09:02:46.827Z,4.75
2022-09-30T09:05:20.563Z,3.45
2022-09-30T09:08:24.659Z,3.60
2022-09-30T09:11:09.000Z,3.40
2022-09-30T09:14:02.851Z,3.83
2022-09-30T09:16:35.354Z,3.22
2022-09-30T09:19:17.710Z,3.47
2022-09-30T09:21:53.499Z,2.97
2022-09-30T09:24:28.790Z,3.00
2022-09-30T09:26:57.431Z,3.28
2022-09-30T09:29:34.392Z,3.08
2022-09-30T09:32:03.353Z,3.20
2022-09-30T09:34:30.836Z,2.75
2022-09-30T09:37:04.289Z,3.20
2022-09-30T09:39:44.268Z,2.88
2022-09-30T09:42:34.062Z,2.55
2022-09-30T09:45:05.247Z,2.95
2022-09-30T09:47:32.798Z,2.70
2022-09-30T09:50:04.283Z,2.60
2022-09-30T09:53:11.166Z,2.67
2022-09-30T09:55:38.393Z,3.08
2022-09-30T09:58:07.012Z,2.78
2022-09-30T10:00:48.797Z,2.63
2022-09-30T10:03:20.327Z,3.15
2022-09-30T10:05:59.845Z,3.20
2022-09-30T10:08:26.681Z,3.00
2022-09-30T10:10:58.780Z,3.70
2022-09-30T10:13:41.098Z,3.22
2022-09-30T10:16:27.255Z,3.58
2022-09-30T10:18:54.176Z,3.40
2022-09-30T10:21:22.692Z,3.65
2022-09-30T10:23:49.408Z,3.35
2022-09-30T10:26:21.286Z,4.07
2022-09-30T10:29:01.778Z,3.85
2022-09-30T10:31:36.078Z,3.30
2022-09-30T10:34:11.378Z,3.70
2022-09-30T10:36:39.883Z,3.58
2022-09-30T10:39:08.791Z,3.17
2022-09-30T10:41:37.485Z,3.00
2022-09-30T10:44:07.763Z,5.45
2022-09-30T10:46:39.731Z,5.53
2022-09-30T10:49:10.654Z,3.55
2022-09-30T10:51:37.877Z,2.70
2022-09-30T10:54:05.429Z,2.60
2022-09-30T10:56:39.025Z,2.50
2022-09-30T10:59:21.682Z,3.10
2022-09-30T11:01:53.872Z,3.08
2022-09-30T11:04:37.648Z,2.85
2022-09-30T11:07:14.894Z,2.95
2022-09-30T11:09:50.385Z,3.17
2022-09-30T11:12:26.115Z,2.30
2022-09-30T11:15:00.017Z,2.45
2022-09-30T11:20:20.275Z,2.60
2022-09-30T11:23:16.891Z,2.67
2022-09-30T11:25:51.266Z,2.40
2022-09-30T11:28:29.893Z,2.70
2022-09-30T11:31:15.416Z,2.78
2022-09-30T11:34:00.889Z,2.60
2022-09-30T11:36:59.409Z,2.70
2022-09-30T11:40:00.932Z,2.40
2022-09-30T11:42:46.851Z,2.28
2022-09-30T11:45:25.867Z,2.70
2022-09-30T11:48:01.427Z,2.63
2022-09-30T11:50:57.098Z,2.65
2022-09-30T11:53:44.962Z,2.17
2022-09-30T11:56:20.614Z,2.20
2022-09-30T11:58:51.896Z,2.72
2022-09-30T12:01:33.515Z,2.92
2022-09-30T12:04:05.356Z,2.33
2022-09-30T12:06:42.287Z,2.70
2022-09-30T12:09:25.725Z,2.65
2022-09-30T12:11:56.758Z,3.10
2022-09-30T12:14:28.554Z,2.90
2022-09-30T12:16:57.746Z,2.70
2022-09-30T12:19:29.818Z,2.88
2022-09-30T12:22:11.545Z,3.15
2022-09-30T12:24:40.771Z,2.67
2022-09-30T12:27:19.069Z,2.90
2022-09-30T12:30:20.605Z,3.20
2022-09-30T12:33:02.505Z,2.92
2022-09-30T12:35:38.213Z,3.53
2022-09-30T12:38:24.330Z,2.90
2022-09-30T12:41:12.870Z,3.00
2022-09-30T12:43:51.405Z,2.90
2022-09-30T12:47:06.208Z,3.30
2022-09-30T12:49:37.962Z,4.05
2022-09-30T12:52:07.190Z,3.28
2022-09-30T12:54:43.150Z,3.38
2022-09-30T12:57:09.963Z,3.13
2022-09-30T12:59:39.575Z,3.40
2022-09-30T13:02:08.016Z,2.83
2022-09-30T13:04:34.694Z,2.97
2022-09-30T13:07:01.210Z,3.10
2022-09-30T13:09:49.477Z,2.97
2022-09-30T13:12:17.450Z,2.67
2022-09-30T13:14:44.053Z,2.80
2022-09-30T13:17:10.544Z,2.75
2022-09-30T13:19:44.921Z,2.72
2022-09-30T13:22:30.189Z,2.72
2022-09-30T13:24:57.255Z,2.40
2022-09-30T13:27:42.685Z,2.60
2022-09-30T13:30:18.679Z,2.13
2022-09-30T13:32:52.147Z,2.42
2022-09-30T13:35:35.047Z,2.00
2022-09-30T13:38:13.781Z,2.40
2022-09-30T13:41:01.834Z,1.95
2022-09-30T13:43:42.371Z,1.80
2022-09-30T13:46:36.656Z,2.17
2022-09-30T13:49:14.332Z,2.15
2022-09-30T13:51:41.769Z,2.08
2022-09-30T13:54:32.749Z,1.85
2022-09-30T13:57:00.921Z,2.40
2022-09-30T13:59:48.607Z,1.90
2022-09-30T14:02:39.628Z,1.95
2022-09-30T14:05:35.205Z,1.92
2022-09-30T14:08:53.490Z,1.80
2022-09-30T14:11:33.002Z,2.33
2022-09-30T14:14:15.408Z,2.10
2022-09-30T14:17:05.422Z,2.00
2022-09-30T14:19:47.542Z,1.77
2022-09-30T14:22:14.968Z,1.88
2022-09-30T14:24:41.724Z,1.55
2022-09-30T14:27:31.452Z,1.77
2022-09-30T14:30:19.052Z,1.60
2022-09-30T14:32:53.445Z,1.77
2022-09-30T14:35:20.605Z,2.00
2022-09-30T14:38:02.698Z,1.75
2022-09-30T14:40:34.623Z,1.70
2022-09-30T14:43:03.274Z,1.50
2022-09-30T14:45:32.594Z,1.60
2022-09-30T14:48:09.031Z,1.60
2022-09-30T14:50:46.645Z,1.67
2022-09-30T14:53:34.169Z,1.67
2022-09-30T14:56:02.141Z,1.60
2022-09-30T14:58:30.796Z,1.80
2022-09-30T15:01:03.414Z,2.33
2022-09-30T15:03:30.506Z,1.92
2022-09-30T15:05:58.216Z,1.90
2022-09-30T15:08:25.158Z,1.50
2022-09-30T15:10:54.574Z,1.60
2022-09-30T15:13:23.883Z,1.90
2022-09-30T15:15:50.735Z,2.05
2022-09-30T15:18:36.427Z,1.90
2022-09-30T15:21:11.765Z,1.80
2022-09-30T15:23:41.318Z,1.85
2022-09-30T15:26:10.976Z,1.73
2022-09-30T15:28:37.734Z,1.90
2022-09-30T15:31:05.232Z,1.85
2022-09-30T15:33:32.460Z,1.70
2022-09-30T15:36:15.850Z,1.80
2022-09-30T15:38:49.664Z,1.90
2022-09-30T15:41:16.734Z,1.90
2022-09-30T15:43:51.820Z,2.03
2022-09-30T15:47:20.308Z,2.65
2022-09-30T15:49:50.121Z,2.58
2022-09-30T15:52:37.128Z,2.17
2022-09-30T15:55:36.110Z,1.98
2022-09-30T15:58:02.780Z,2.00
2022-09-30T16:00:35.061Z,2.28
2022-09-30T16:03:20.538Z,2.08
2022-09-30T16:05:51.831Z,1.80
2022-09-30T16:08:23.905Z,1.80
2022-09-30T16:10:52.745Z,2.00
2022-09-30T16:13:22.042Z,2.20
2022-09-30T16:15:48.790Z,2.50
2022-09-30T16:18:32.671Z,2.00
2022-09-30T16:21:05.832Z,2.53
2022-09-30T16:23:37.829Z,2.40
2022-09-30T16:26:20.865Z,2.22
2022-09-30T16:28:47.787Z,2.20
2022-09-30T16:31:16.183Z,2.38
2022-09-30T16:33:44.228Z,2.55
2022-09-30T16:36:11.853Z,2.20
2022-09-30T16:38:38.751Z,2.30
2022-09-30T16:41:05.735Z,2.22
2022-09-30T16:43:32.703Z,2.38
2022-09-30T16:46:02.430Z,2.30
2022-09-30T16:48:29.149Z,2.80
2022-09-30T16:50:58.999Z,2.50
2022-09-30T16:53:25.613Z,2.42
2022-09-30T16:55:52.272Z,2.38
2022-09-30T16:58:19.864Z,2.22
2022-09-30T17:00:46.633Z,2.40
2022-09-30T17:03:15.498Z,2.72
2022-09-30T17:05:43.322Z,2.13
2022-09-30T17:08:15.367Z,2.58
2022-09-30T17:10:43.058Z,2.30
2022-09-30T17:13:10.049Z,2.35
2022-09-30T17:15:37.423Z,2.08
2022-09-30T17:18:07.267Z,2.25
2022-09-30T17:20:35.020Z,2.50
2022-09-30T17:23:06.272Z,2.33
2022-09-30T17:25:34.177Z,2.22
2022-09-30T17:28:01.187Z,3.05
2022-09-30T17:30:27.931Z,2.60
2022-09-30T17:32:54.580Z,2.22
2022-09-30T17:35:22.566Z,2.28
2022-09-30T17:37:49.458Z,2.30
2022-09-30T17:40:35.267Z,2.70
2022-09-30T17:43:07.866Z,2.25
2022-09-30T17:45:35.289Z,2.35
2022-09-30T17:48:02.092Z,2.47
2022-09-30T17:50:28.947Z,2.42
2022-09-30T17:52:56.299Z,3.03
2022-09-30T17:55:22.986Z,2.60
2022-09-30T17:57:50.094Z,2.42
2022-09-30T18:00:16.788Z,2.75
2022-09-30T18:02:44.757Z,2.70
2022-09-30T18:05:11.749Z,2.70
2022-09-30T18:07:38.388Z,2.60
2022-09-30T18:10:05.381Z,2.55
2022-09-30T18:12:34.264Z,2.50
2022-09-30T18:15:01.117Z,2.78
2022-09-30T18:17:28.216Z,2.47
2022-09-30T18:19:55.029Z,2.60
2022-09-30T18:22:21.756Z,2.72
2022-09-30T18:25:07.293Z,2.40
2022-09-30T18:27:34.072Z,2.47
2022-09-30T18:30:04.452Z,2.47
2022-09-30T18:32:31.751Z,2.87
2022-09-30T18:34:58.559Z,3.23
2022-09-30T18:37:25.244Z,2.92
2022-09-30T18:39:52.053Z,2.70
2022-09-30T18:42:20.210Z,2.77
2022-09-30T18:44:47.714Z,2.50
2022-09-30T18:47:17.471Z,2.83
2022-09-30T18:49:44.557Z,3.00
2022-09-30T18:52:11.341Z,2.87
2022-09-30T18:54:38.094Z,2.97
2022-09-30T18:57:05.076Z,3.20
2022-09-30T18:59:31.726Z,3.30
2022-09-30T19:01:59.671Z,4.30
2022-09-30T19:04:26.378Z,3.60
2022-09-30T19:06:53.225Z,3.10
2022-09-30T19:09:19.847Z,2.87
2022-09-30T19:11:48.026Z,2.77
2022-09-30T19:14:15.538Z,2.63
2022-09-30T19:16:43.483Z,2.90
2022-09-30T19:19:10.638Z,2.80
2022-09-30T19:21:40.438Z,2.80
2022-09-30T19:24:08.840Z,3.47
2022-09-30T19:26:37.363Z,3.53
2022-09-30T19:29:05.521Z,3.23
2022-09-30T19:31:34.276Z,2.87
2022-09-30T19:34:02.048Z,3.80
2022-09-30T19:36:31.934Z,2.80
2022-09-30T19:39:11.523Z,3.30
2022-09-30T19:41:38.857Z,2.80
2022-09-30T19:44:06.535Z,3.13
2022-09-30T19:46:33.216Z,2.93
2022-09-30T19:49:00.061Z,3.60
2022-09-30T19:51:29.190Z,2.90
2022-09-30T19:54:04.467Z,3.47
2022-09-30T19:56:35.118Z,2.80
2022-09-30T19:59:02.105Z,3.10
2022-09-30T20:01:29.534Z,2.97
2022-09-30T20:04:00.289Z,3.20
2022-09-30T20:06:28.093Z,3.77
2022-09-30T20:08:59.939Z,3.27
2022-09-30T20:11:29.714Z,3.53
2022-09-30T20:14:15.214Z,3.13
2022-09-30T20:16:43.589Z,3.40
2022-09-30T20:19:11.384Z,3.20
2022-09-30T20:21:38.443Z,3.13
2022-09-30T20:24:05.540Z,3.00
2022-09-30T20:26:34.179Z,3.20
2022-09-30T20:29:00.986Z,3.70
2022-09-30T20:31:28.287Z,3.47
2022-09-30T20:33:56.367Z,3.30
2022-09-30T20:36:23.558Z,3.77
2022-09-30T20:38:51.116Z,3.23
2022-09-30T20:41:17.768Z,3.53
2022-09-30T20:43:49.196Z,3.63
2022-09-30T20:46:15.917Z,3.60
2022-09-30T20:48:42.618Z,4.00
2022-09-30T20:51:11.372Z,4.20
2022-09-30T20:53:39.776Z,3.67
2022-09-30T20:56:10.692Z,3.80
2022-09-30T20:58:37.946Z,3.77
2022-09-30T21:01:09.495Z,3.80
2022-09-30T21:03:37.764Z,4.07
2022-09-30T21:06:07.297Z,3.70
2022-09-30T21:08:39.071Z,3.73
2022-09-30T21:11:07.392Z,3.97
2022-09-30T21:13:35.301Z,4.10
2022-09-30T21:16:04.084Z,3.83
2022-09-30T21:18:31.266Z,3.90
2022-09-30T21:20:58.892Z,3.80
2022-09-30T21:23:26.627Z,4.13
2022-09-30T21:26:01.172Z,3.97
2022-09-30T21:28:28.607Z,3.90
2022-09-30T21:30:56.126Z,3.83
2022-09-30T21:33:24.282Z,3.83
2022-09-30T21:36:01.645Z,3.90
2022-09-30T21:38:30.060Z,3.77
2022-09-30T21:41:01.489Z,3.70
2022-09-30T21:43:32.457Z,3.77
2022-09-30T21:46:07.588Z,4.00
2022-09-30T21:48:35.624Z,3.73
2022-09-30T21:51:03.301Z,3.53
2022-09-30T21:53:29.944Z,3.90
2022-09-30T21:55:58.669Z,3.50
2022-09-30T21:58:26.016Z,4.33
2022-09-30T22:00:54.766Z,4.13
2022-09-30T22:03:22.891Z,4.47
2022-09-30T22:05:57.587Z,4.07
2022-09-30T22:08:24.614Z,4.17
2022-09-30T22:10:51.310Z,4.47
2022-09-30T22:13:18.128Z,4.20
2022-09-30T22:15:46.021Z,4.90
2022-09-30T22:18:17.375Z,4.87
2022-09-30T22:20:44.630Z,4.70
2022-09-30T22:23:11.472Z,4.60
2022-09-30T22:25:38.278Z,4.60
2022-09-30T22:28:05.132Z,4.63
2022-09-30T22:30:32.474Z,4.23
2022-09-30T22:33:17.682Z,4.80
2022-09-30T22:36:03.000Z,4.70
2022-09-30T22:38:29.971Z,4.50
2022-09-30T22:40:59.322Z,5.13
2022-09-30T22:43:26.746Z,4.97
2022-09-30T22:46:08.140Z,5.00
2022-09-30T22:48:35.052Z,5.30
2022-09-30T22:51:01.967Z,4.80
2022-09-30T22:53:29.195Z,4.97
2022-09-30T22:55:55.974Z,4.67
2022-09-30T22:58:24.434Z,4.33
2022-09-30T23:00:58.699Z,5.00
2022-09-30T23:05:53.321Z,4.20
2022-09-30T23:08:19.978Z,5.37
2022-09-30T23:10:50.264Z,5.23
2022-09-30T23:13:20.271Z,5.27
2022-09-30T23:15:47.744Z,5.13
2022-09-30T23:18:17.632Z,5.30
2022-09-30T23:20:56.761Z,5.53
2022-09-30T23:23:23.954Z,5.40
2022-09-30T23:26:08.157Z,5.20
2022-09-30T23:28:34.919Z,5.05
2022-09-30T23:31:08.016Z,4.87
2022-09-30T23:33:46.614Z,6.00
2022-09-30T23:36:29.311Z,5.60
2022-09-30T23:39:20.884Z,5.07
2022-09-30T23:41:48.863Z,5.37
2022-09-30T23:44:18.683Z,6.37
2022-09-30T23:47:05.088Z,6.30
2022-09-30T23:49:35.431Z,5.50
2022-09-30T23:52:10.545Z,6.20
2022-09-30T23:54:42.125Z,6.00
2022-09-30T23:57:10.489Z,5.50
2022-09-30T23:59:37.906Z,6.33
